sensor_id;sensor_type;location;lat;lon;timestamp;P1;durP1;ratioP1;P2;durP2;ratioP2
38859;SDS011;24609;48.316;16.174;2024-03-08T00:02:13;59.30;;;35.95;;
38859;SDS011;24609;48.316;16.174;2024-03-08T00:04:39;65.47;;;36.40;;
38859;SDS011;24609;48.316;16.174;2024-03-08T00:07:05;64.88;;;36.22;;
38859;SDS011;24609;48.316;16.174;2024-03-08T00:09:32;62.85;;;35.85;;
38859;SDS011;24609;48.316;16.174;2024-03-08T00:11:57;72.55;;;39.67;;
38859;SDS011;24609;48.316;16.174;2024-03-08T00:14:23;79.90;;;38.47;;
38859;SDS011;24609;48.316;16.174;2024-03-08T00:16:49;63.75;;;37.22;;
38859;SDS011;24609;48.316;16.174;2024-03-08T00:19:15;64.97;;;36.05;;
38859;SDS011;24609;48.316;16.174;2024-03-08T00:21:40;65.70;;;35.58;;
38859;SDS011;24609;48.316;16.174;2024-03-08T00:24:07;65.68;;;36.88;;
38859;SDS011;24609;48.316;16.174;2024-03-08T00:26:33;65.60;;;37.47;;
38859;SDS011;24609;48.316;16.174;2024-03-08T00:28:58;65.63;;;37.33;;
38859;SDS011;24609;48.316;16.174;2024-03-08T00:31:24;65.75;;;36.63;;
38859;SDS011;24609;48.316;16.174;2024-03-08T00:33:50;60.70;;;34.53;;
38859;SDS011;24609;48.316;16.174;2024-03-08T00:36:17;66.95;;;37.00;;
38859;SDS011;24609;48.316;16.174;2024-03-08T00:38:43;61.25;;;35.88;;
38859;SDS011;24609;48.316;16.174;2024-03-08T00:41:08;64.43;;;35.22;;
38859;SDS011;24609;48.316;16.174;2024-03-08T00:43:34;68.40;;;36.60;;
38859;SDS011;24609;48.316;16.174;2024-03-08T00:46:00;66.28;;;35.55;;
38859;SDS011;24609;48.316;16.174;2024-03-08T00:48:26;62.85;;;34.85;;
38859;SDS011;24609;48.316;16.174;2024-03-08T00:50:52;61.05;;;34.17;;
38859;SDS011;24609;48.316;16.174;2024-03-08T00:53:18;64.63;;;34.38;;
38859;SDS011;24609;48.316;16.174;2024-03-08T00:55:44;61.08;;;35.70;;
38859;SDS011;24609;48.316;16.174;2024-03-08T00:58:11;70.75;;;39.95;;
38859;SDS011;24609;48.316;16.174;2024-03-08T01:00:37;68.22;;;37.78;;
38859;SDS011;24609;48.316;16.174;2024-03-08T01:03:04;64.88;;;36.25;;
38859;SDS011;24609;48.316;16.174;2024-03-08T01:05:30;65.93;;;36.47;;
38859;SDS011;24609;48.316;16.174;2024-03-08T01:07:55;67.53;;;37.22;;
38859;SDS011;24609;48.316;16.174;2024-03-08T01:10:21;71.82;;;38.47;;
38859;SDS011;24609;48.316;16.174;2024-03-08T01:12:47;68.80;;;37.50;;
38859;SDS011;24609;48.316;16.174;2024-03-08T01:15:14;62.58;;;35.95;;
38859;SDS011;24609;48.316;16.174;2024-03-08T01:17:40;61.45;;;35.38;;
38859;SDS011;24609;48.316;16.174;2024-03-08T01:20:06;57.28;;;33.15;;
38859;SDS011;24609;48.316;16.174;2024-03-08T01:22:33;62.00;;;34.33;;
38859;SDS011;24609;48.316;16.174;2024-03-08T01:24:59;59.45;;;33.28;;
38859;SDS011;24609;48.316;16.174;2024-03-08T01:27:24;58.97;;;34.17;;
38859;SDS011;24609;48.316;16.174;2024-03-08T01:29:50;57.47;;;32.22;;
38859;SDS011;24609;48.316;16.174;2024-03-08T01:32:16;64.90;;;36.15;;
38859;SDS011;24609;48.316;16.174;2024-03-08T01:34:42;62.22;;;34.95;;
38859;SDS011;24609;48.316;16.174;2024-03-08T01:37:10;58.63;;;35.22;;
38859;SDS011;24609;48.316;16.174;2024-03-08T01:39:35;58.47;;;32.22;;
38859;SDS011;24609;48.316;16.174;2024-03-08T01:42:01;57.83;;;33.45;;
38859;SDS011;24609;48.316;16.174;2024-03-08T01:44:27;67.55;;;36.60;;
38859;SDS011;24609;48.316;16.174;2024-03-08T01:46:52;66.35;;;36.58;;
38859;SDS011;24609;48.316;16.174;2024-03-08T01:49:19;63.28;;;34.08;;
38859;SDS011;24609;48.316;16.174;2024-03-08T01:51:46;59.25;;;33.13;;
38859;SDS011;24609;48.316;16.174;2024-03-08T01:54:16;61.28;;;32.78;;
38859;SDS011;24609;48.316;16.174;2024-03-08T01:56:43;65.80;;;34.67;;
38859;SDS011;24609;48.316;16.174;2024-03-08T01:59:09;64.15;;;33.70;;
38859;SDS011;24609;48.316;16.174;2024-03-08T02:01:35;58.78;;;33.78;;
38859;SDS011;24609;48.316;16.174;2024-03-08T02:04:01;59.63;;;33.72;;
38859;SDS011;24609;48.316;16.174;2024-03-08T02:06:26;60.50;;;33.42;;
38859;SDS011;24609;48.316;16.174;2024-03-08T02:08:52;60.63;;;33.05;;
38859;SDS011;24609;48.316;16.174;2024-03-08T02:11:18;64.60;;;34.38;;
38859;SDS011;24609;48.316;16.174;2024-03-08T02:13:45;58.85;;;32.88;;
38859;SDS011;24609;48.316;16.174;2024-03-08T02:16:11;58.03;;;31.42;;
38859;SDS011;24609;48.316;16.174;2024-03-08T02:18:37;64.18;;;34.33;;
38859;SDS011;24609;48.316;16.174;2024-03-08T02:21:05;63.08;;;32.97;;
38859;SDS011;24609;48.316;16.174;2024-03-08T02:23:31;58.63;;;32.58;;
38859;SDS011;24609;48.316;16.174;2024-03-08T02:25:58;57.92;;;32.42;;
38859;SDS011;24609;48.316;16.174;2024-03-08T02:28:24;59.78;;;34.13;;
38859;SDS011;24609;48.316;16.174;2024-03-08T02:30:53;64.07;;;34.83;;
38859;SDS011;24609;48.316;16.174;2024-03-08T02:33:20;59.50;;;33.33;;
38859;SDS011;24609;48.316;16.174;2024-03-08T02:35:47;58.72;;;33.08;;
38859;SDS011;24609;48.316;16.174;2024-03-08T02:38:14;58.63;;;33.17;;
38859;SDS011;24609;48.316;16.174;2024-03-08T02:40:44;64.55;;;35.63;;
38859;SDS011;24609;48.316;16.174;2024-03-08T02:43:11;71.40;;;36.83;;
38859;SDS011;24609;48.316;16.174;2024-03-08T02:45:37;65.53;;;35.88;;
38859;SDS011;24609;48.316;16.174;2024-03-08T02:48:03;69.15;;;35.55;;
38859;SDS011;24609;48.316;16.174;2024-03-08T02:50:31;71.72;;;37.80;;
38859;SDS011;24609;48.316;16.174;2024-03-08T02:52:57;66.68;;;34.22;;
38859;SDS011;24609;48.316;16.174;2024-03-08T02:55:23;63.97;;;34.63;;
38859;SDS011;24609;48.316;16.174;2024-03-08T02:57:51;65.90;;;35.03;;
38859;SDS011;24609;48.316;16.174;2024-03-08T03:00:17;66.05;;;35.22;;
38859;SDS011;24609;48.316;16.174;2024-03-08T03:02:44;66.68;;;36.05;;
38859;SDS011;24609;48.316;16.174;2024-03-08T03:05:11;64.63;;;35.55;;
38859;SDS011;24609;48.316;16.174;2024-03-08T03:07:37;69.53;;;37.58;;
38859;SDS011;24609;48.316;16.174;2024-03-08T03:10:03;81.00;;;39.53;;
38859;SDS011;24609;48.316;16.174;2024-03-08T03:12:30;69.45;;;38.05;;
38859;SDS011;24609;48.316;16.174;2024-03-08T03:14:56;67.20;;;37.35;;
38859;SDS011;24609;48.316;16.174;2024-03-08T03:17:23;67.20;;;35.65;;
38859;SDS011;24609;48.316;16.174;2024-03-08T03:19:49;66.78;;;36.47;;
38859;SDS011;24609;48.316;16.174;2024-03-08T03:22:16;70.68;;;35.33;;
38859;SDS011;24609;48.316;16.174;2024-03-08T03:24:43;65.65;;;37.13;;
38859;SDS011;24609;48.316;16.174;2024-03-08T03:27:11;66.97;;;35.92;;
38859;SDS011;24609;48.316;16.174;2024-03-08T03:29:46;64.85;;;35.50;;
38859;SDS011;24609;48.316;16.174;2024-03-08T03:32:12;63.58;;;33.83;;
38859;SDS011;24609;48.316;16.174;2024-03-08T03:34:38;62.55;;;34.00;;
38859;SDS011;24609;48.316;16.174;2024-03-08T03:37:05;63.95;;;35.13;;
38859;SDS011;24609;48.316;16.174;2024-03-08T03:39:37;65.80;;;36.03;;
38859;SDS011;24609;48.316;16.174;2024-03-08T03:42:17;63.63;;;35.08;;
38859;SDS011;24609;48.316;16.174;2024-03-08T03:44:44;64.43;;;36.05;;
38859;SDS011;24609;48.316;16.174;2024-03-08T03:47:13;66.25;;;36.28;;
38859;SDS011;24609;48.316;16.174;2024-03-08T03:49:43;66.63;;;35.80;;
38859;SDS011;24609;48.316;16.174;2024-03-08T03:52:10;67.82;;;36.70;;
38859;SDS011;24609;48.316;16.174;2024-03-08T03:54:36;68.38;;;36.20;;
38859;SDS011;24609;48.316;16.174;2024-03-08T03:57:01;56.33;;;34.03;;
38859;SDS011;24609;48.316;16.174;2024-03-08T03:59:28;65.97;;;36.42;;
38859;SDS011;24609;48.316;16.174;2024-03-08T04:01:54;64.25;;;36.08;;
38859;SDS011;24609;48.316;16.174;2024-03-08T04:04:20;61.78;;;35.33;;
38859;SDS011;24609;48.316;16.174;2024-03-08T04:06:46;63.50;;;33.83;;
38859;SDS011;24609;48.316;16.174;2024-03-08T04:09:12;71.93;;;36.70;;
38859;SDS011;24609;48.316;16.174;2024-03-08T04:11:38;66.93;;;35.85;;
38859;SDS011;24609;48.316;16.174;2024-03-08T04:14:04;63.83;;;34.13;;
38859;SDS011;24609;48.316;16.174;2024-03-08T04:16:30;59.10;;;34.15;;
38859;SDS011;24609;48.316;16.174;2024-03-08T04:18:57;72.90;;;34.55;;
38859;SDS011;24609;48.316;16.174;2024-03-08T04:21:23;57.40;;;31.50;;
38859;SDS011;24609;48.316;16.174;2024-03-08T04:23:49;59.95;;;33.05;;
38859;SDS011;24609;48.316;16.174;2024-03-08T04:26:14;63.50;;;33.17;;
38859;SDS011;24609;48.316;16.174;2024-03-08T04:28:40;56.03;;;31.25;;
38859;SDS011;24609;48.316;16.174;2024-03-08T04:31:06;59.55;;;32.67;;
38859;SDS011;24609;48.316;16.174;2024-03-08T04:33:32;66.25;;;33.10;;
38859;SDS011;24609;48.316;16.174;2024-03-08T04:36:00;56.87;;;33.07;;
38859;SDS011;24609;48.316;16.174;2024-03-08T04:38:26;61.42;;;32.97;;
38859;SDS011;24609;48.316;16.174;2024-03-08T04:40:52;59.67;;;32.15;;
38859;SDS011;24609;48.316;16.174;2024-03-08T04:43:18;60.15;;;32.72;;
38859;SDS011;24609;48.316;16.174;2024-03-08T04:45:45;62.95;;;33.17;;
38859;SDS011;24609;48.316;16.174;2024-03-08T04:48:11;60.13;;;34.42;;
38859;SDS011;24609;48.316;16.174;2024-03-08T04:50:37;58.75;;;32.47;;
38859;SDS011;24609;48.316;16.174;2024-03-08T04:53:03;60.63;;;34.10;;
38859;SDS011;24609;48.316;16.174;2024-03-08T04:55:33;66.03;;;34.58;;
38859;SDS011;24609;48.316;16.174;2024-03-08T04:57:59;61.85;;;34.97;;
38859;SDS011;24609;48.316;16.174;2024-03-08T05:00:24;55.67;;;32.40;;
38859;SDS011;24609;48.316;16.174;2024-03-08T05:02:50;57.72;;;33.38;;
38859;SDS011;24609;48.316;16.174;2024-03-08T05:05:18;61.60;;;33.35;;
38859;SDS011;24609;48.316;16.174;2024-03-08T05:07:44;56.72;;;33.47;;
38859;SDS011;24609;48.316;16.174;2024-03-08T05:10:10;63.45;;;33.85;;
38859;SDS011;24609;48.316;16.174;2024-03-08T05:12:36;60.20;;;33.22;;
38859;SDS011;24609;48.316;16.174;2024-03-08T05:15:04;58.95;;;33.97;;
38859;SDS011;24609;48.316;16.174;2024-03-08T05:17:30;66.45;;;36.13;;
38859;SDS011;24609;48.316;16.174;2024-03-08T05:19:56;69.90;;;35.47;;
38859;SDS011;24609;48.316;16.174;2024-03-08T05:22:22;64.93;;;34.20;;
38859;SDS011;24609;48.316;16.174;2024-03-08T05:24:47;60.13;;;33.33;;
38859;SDS011;24609;48.316;16.174;2024-03-08T05:27:13;64.47;;;36.08;;
38859;SDS011;24609;48.316;16.174;2024-03-08T05:29:39;61.22;;;34.85;;
38859;SDS011;24609;48.316;16.174;2024-03-08T05:32:04;58.08;;;32.67;;
38859;SDS011;24609;48.316;16.174;2024-03-08T05:34:32;60.63;;;32.13;;
38859;SDS011;24609;48.316;16.174;2024-03-08T05:36:57;58.20;;;34.85;;
38859;SDS011;24609;48.316;16.174;2024-03-08T05:39:23;61.55;;;34.97;;
38859;SDS011;24609;48.316;16.174;2024-03-08T05:41:49;65.78;;;35.33;;
38859;SDS011;24609;48.316;16.174;2024-03-08T05:44:16;62.42;;;32.88;;
38859;SDS011;24609;48.316;16.174;2024-03-08T05:46:44;63.72;;;35.22;;
38859;SDS011;24609;48.316;16.174;2024-03-08T05:49:11;62.83;;;34.50;;
38859;SDS011;24609;48.316;16.174;2024-03-08T05:51:38;58.95;;;34.33;;
38859;SDS011;24609;48.316;16.174;2024-03-08T05:54:05;56.33;;;32.95;;
38859;SDS011;24609;48.316;16.174;2024-03-08T05:56:37;62.80;;;34.20;;
38859;SDS011;24609;48.316;16.174;2024-03-08T05:59:05;59.70;;;33.17;;
38859;SDS011;24609;48.316;16.174;2024-03-08T06:01:31;61.78;;;33.05;;
38859;SDS011;24609;48.316;16.174;2024-03-08T06:03:58;58.22;;;32.72;;
38859;SDS011;24609;48.316;16.174;2024-03-08T06:06:24;60.35;;;34.58;;
38859;SDS011;24609;48.316;16.174;2024-03-08T06:08:50;58.80;;;33.22;;
38859;SDS011;24609;48.316;16.174;2024-03-08T06:11:16;54.45;;;31.50;;
38859;SDS011;24609;48.316;16.174;2024-03-08T06:13:44;62.95;;;35.50;;
38859;SDS011;24609;48.316;16.174;2024-03-08T06:16:10;72.20;;;38.05;;
38859;SDS011;24609;48.316;16.174;2024-03-08T06:18:36;64.22;;;36.20;;
38859;SDS011;24609;48.316;16.174;2024-03-08T06:21:03;63.75;;;35.50;;
38859;SDS011;24609;48.316;16.174;2024-03-08T06:23:32;64.47;;;35.25;;
38859;SDS011;24609;48.316;16.174;2024-03-08T06:25:58;62.50;;;33.90;;
38859;SDS011;24609;48.316;16.174;2024-03-08T06:28:24;65.20;;;34.75;;
38859;SDS011;24609;48.316;16.174;2024-03-08T06:30:49;58.28;;;34.10;;
38859;SDS011;24609;48.316;16.174;2024-03-08T06:33:16;63.35;;;35.50;;
38859;SDS011;24609;48.316;16.174;2024-03-08T06:35:42;64.80;;;36.22;;
38859;SDS011;24609;48.316;16.174;2024-03-08T06:38:08;63.95;;;35.10;;
38859;SDS011;24609;48.316;16.174;2024-03-08T06:40:34;61.03;;;34.17;;
38859;SDS011;24609;48.316;16.174;2024-03-08T06:43:00;54.38;;;32.83;;
38859;SDS011;24609;48.316;16.174;2024-03-08T06:45:25;61.85;;;34.28;;
38859;SDS011;24609;48.316;16.174;2024-03-08T06:47:51;60.42;;;34.05;;
38859;SDS011;24609;48.316;16.174;2024-03-08T06:50:17;65.30;;;35.88;;
38859;SDS011;24609;48.316;16.174;2024-03-08T06:52:43;61.95;;;36.50;;
38859;SDS011;24609;48.316;16.174;2024-03-08T06:55:09;63.03;;;35.78;;
38859;SDS011;24609;48.316;16.174;2024-03-08T06:57:41;64.65;;;35.33;;
38859;SDS011;24609;48.316;16.174;2024-03-08T07:00:07;67.22;;;37.60;;
38859;SDS011;24609;48.316;16.174;2024-03-08T07:02:38;68.18;;;35.95;;
38859;SDS011;24609;48.316;16.174;2024-03-08T07:05:07;63.08;;;35.05;;
38859;SDS011;24609;48.316;16.174;2024-03-08T07:07:35;65.57;;;36.22;;
38859;SDS011;24609;48.316;16.174;2024-03-08T07:10:02;58.80;;;33.55;;
38859;SDS011;24609;48.316;16.174;2024-03-08T07:12:28;66.28;;;35.97;;
38859;SDS011;24609;48.316;16.174;2024-03-08T07:14:54;65.22;;;35.88;;
38859;SDS011;24609;48.316;16.174;2024-03-08T07:17:19;64.40;;;36.92;;
38859;SDS011;24609;48.316;16.174;2024-03-08T07:19:45;59.70;;;33.65;;
38859;SDS011;24609;48.316;16.174;2024-03-08T07:22:11;65.57;;;35.90;;
38859;SDS011;24609;48.316;16.174;2024-03-08T07:24:36;58.97;;;33.90;;
38859;SDS011;24609;48.316;16.174;2024-03-08T07:27:23;60.05;;;34.50;;
38859;SDS011;24609;48.316;16.174;2024-03-08T07:29:48;68.15;;;36.60;;
38859;SDS011;24609;48.316;16.174;2024-03-08T07:32:14;63.40;;;34.17;;
38859;SDS011;24609;48.316;16.174;2024-03-08T07:34:49;61.67;;;34.47;;
38859;SDS011;24609;48.316;16.174;2024-03-08T07:39:41;63.17;;;34.17;;
38859;SDS011;24609;48.316;16.174;2024-03-08T07:42:08;59.90;;;34.58;;
38859;SDS011;24609;48.316;16.174;2024-03-08T07:44:35;63.17;;;34.72;;
38859;SDS011;24609;48.316;16.174;2024-03-08T07:47:00;67.35;;;36.10;;
38859;SDS011;24609;48.316;16.174;2024-03-08T07:49:26;64.57;;;36.55;;
38859;SDS011;24609;48.316;16.174;2024-03-08T07:51:52;62.97;;;34.15;;
38859;SDS011;24609;48.316;16.174;2024-03-08T07:54:17;65.32;;;35.53;;
38859;SDS011;24609;48.316;16.174;2024-03-08T07:56:43;61.65;;;34.45;;
38859;SDS011;24609;48.316;16.174;2024-03-08T07:59:08;64.80;;;36.38;;
38859;SDS011;24609;48.316;16.174;2024-03-08T08:01:36;53.97;;;32.72;;
38859;SDS011;24609;48.316;16.174;2024-03-08T08:04:03;63.75;;;34.92;;
38859;SDS011;24609;48.316;16.174;2024-03-08T08:06:28;63.20;;;35.10;;
38859;SDS011;24609;48.316;16.174;2024-03-08T08:08:58;62.97;;;37.58;;
38859;SDS011;24609;48.316;16.174;2024-03-08T08:11:27;70.18;;;39.22;;
38859;SDS011;24609;48.316;16.174;2024-03-08T08:13:53;62.53;;;34.38;;
38859;SDS011;24609;48.316;16.174;2024-03-08T08:16:25;56.30;;;32.93;;
38859;SDS011;24609;48.316;16.174;2024-03-08T08:18:50;56.13;;;33.80;;
38859;SDS011;24609;48.316;16.174;2024-03-08T08:21:17;54.42;;;31.02;;
38859;SDS011;24609;48.316;16.174;2024-03-08T08:23:43;62.78;;;35.47;;
38859;SDS011;24609;48.316;16.174;2024-03-08T08:26:10;56.92;;;31.67;;
38859;SDS011;24609;48.316;16.174;2024-03-08T08:28:36;52.42;;;30.13;;
38859;SDS011;24609;48.316;16.174;2024-03-08T08:31:03;56.17;;;30.63;;
38859;SDS011;24609;48.316;16.174;2024-03-08T08:33:29;56.92;;;32.85;;
38859;SDS011;24609;48.316;16.174;2024-03-08T08:35:55;69.88;;;33.40;;
38859;SDS011;24609;48.316;16.174;2024-03-08T08:38:21;61.20;;;31.23;;
38859;SDS011;24609;48.316;16.174;2024-03-08T08:40:48;87.60;;;43.28;;
38859;SDS011;24609;48.316;16.174;2024-03-08T08:43:15;71.50;;;35.97;;
38859;SDS011;24609;48.316;16.174;2024-03-08T08:45:40;54.70;;;32.92;;
38859;SDS011;24609;48.316;16.174;2024-03-08T08:48:07;65.47;;;34.28;;
38859;SDS011;24609;48.316;16.174;2024-03-08T08:50:35;64.90;;;35.05;;
38859;SDS011;24609;48.316;16.174;2024-03-08T08:53:01;71.00;;;35.72;;
38859;SDS011;24609;48.316;16.174;2024-03-08T08:55:28;63.20;;;34.90;;
38859;SDS011;24609;48.316;16.174;2024-03-08T08:57:55;62.70;;;33.85;;
38859;SDS011;24609;48.316;16.174;2024-03-08T09:00:21;65.50;;;34.83;;
38859;SDS011;24609;48.316;16.174;2024-03-08T09:02:52;66.03;;;35.25;;
38859;SDS011;24609;48.316;16.174;2024-03-08T09:05:20;66.35;;;35.33;;
38859;SDS011;24609;48.316;16.174;2024-03-08T09:07:46;126.80;;;52.05;;
38859;SDS011;24609;48.316;16.174;2024-03-08T09:10:12;96.65;;;45.63;;
38859;SDS011;24609;48.316;16.174;2024-03-08T09:12:39;84.80;;;42.70;;
38859;SDS011;24609;48.316;16.174;2024-03-08T09:15:05;77.97;;;40.80;;
38859;SDS011;24609;48.316;16.174;2024-03-08T09:17:33;76.32;;;38.88;;
38859;SDS011;24609;48.316;16.174;2024-03-08T09:19:59;74.30;;;38.65;;
38859;SDS011;24609;48.316;16.174;2024-03-08T09:22:25;74.72;;;38.25;;
38859;SDS011;24609;48.316;16.174;2024-03-08T09:24:51;69.25;;;35.78;;
38859;SDS011;24609;48.316;16.174;2024-03-08T09:27:16;70.95;;;39.00;;
38859;SDS011;24609;48.316;16.174;2024-03-08T09:29:43;82.55;;;41.45;;
38859;SDS011;24609;48.316;16.174;2024-03-08T09:32:09;80.00;;;40.20;;
38859;SDS011;24609;48.316;16.174;2024-03-08T09:34:36;81.45;;;42.78;;
38859;SDS011;24609;48.316;16.174;2024-03-08T09:37:02;73.32;;;38.78;;
38859;SDS011;24609;48.316;16.174;2024-03-08T09:39:29;80.03;;;40.08;;
38859;SDS011;24609;48.316;16.174;2024-03-08T09:41:55;71.80;;;38.20;;
38859;SDS011;24609;48.316;16.174;2024-03-08T09:44:21;81.60;;;42.22;;
38859;SDS011;24609;48.316;16.174;2024-03-08T09:46:48;71.82;;;37.47;;
38859;SDS011;24609;48.316;16.174;2024-03-08T09:49:18;73.30;;;38.00;;
38859;SDS011;24609;48.316;16.174;2024-03-08T09:51:44;68.63;;;36.97;;
38859;SDS011;24609;48.316;16.174;2024-03-08T09:54:11;90.22;;;43.83;;
38859;SDS011;24609;48.316;16.174;2024-03-08T09:56:37;90.50;;;45.53;;
38859;SDS011;24609;48.316;16.174;2024-03-08T09:59:09;82.13;;;42.35;;
38859;SDS011;24609;48.316;16.174;2024-03-08T10:01:53;75.38;;;38.10;;
38859;SDS011;24609;48.316;16.174;2024-03-08T10:04:22;84.50;;;41.67;;
38859;SDS011;24609;48.316;16.174;2024-03-08T10:06:47;70.45;;;34.75;;
38859;SDS011;24609;48.316;16.174;2024-03-08T10:09:13;68.88;;;35.30;;
38859;SDS011;24609;48.316;16.174;2024-03-08T10:11:41;77.60;;;39.28;;
38859;SDS011;24609;48.316;16.174;2024-03-08T10:14:07;77.63;;;38.08;;
38859;SDS011;24609;48.316;16.174;2024-03-08T10:16:34;77.63;;;38.38;;
38859;SDS011;24609;48.316;16.174;2024-03-08T10:19:00;71.10;;;36.63;;
38859;SDS011;24609;48.316;16.174;2024-03-08T10:21:26;70.63;;;33.67;;
38859;SDS011;24609;48.316;16.174;2024-03-08T10:23:52;70.70;;;35.40;;
38859;SDS011;24609;48.316;16.174;2024-03-08T10:26:18;69.05;;;34.58;;
38859;SDS011;24609;48.316;16.174;2024-03-08T10:28:50;65.97;;;35.20;;
38859;SDS011;24609;48.316;16.174;2024-03-08T10:31:18;62.60;;;33.42;;
38859;SDS011;24609;48.316;16.174;2024-03-08T10:33:44;59.60;;;31.92;;
38859;SDS011;24609;48.316;16.174;2024-03-08T10:36:14;62.50;;;33.75;;
38859;SDS011;24609;48.316;16.174;2024-03-08T10:38:41;65.10;;;33.17;;
38859;SDS011;24609;48.316;16.174;2024-03-08T10:41:14;56.42;;;28.42;;
38859;SDS011;24609;48.316;16.174;2024-03-08T10:49:44;56.20;;;28.90;;
38859;SDS011;24609;48.316;16.174;2024-03-08T10:52:16;41.50;;;23.42;;
38859;SDS011;24609;48.316;16.174;2024-03-08T10:54:43;49.80;;;26.52;;
38859;SDS011;24609;48.316;16.174;2024-03-08T10:57:12;46.75;;;25.15;;
38859;SDS011;24609;48.316;16.174;2024-03-08T10:59:40;39.42;;;21.20;;
38859;SDS011;24609;48.316;16.174;2024-03-08T11:02:09;39.40;;;21.17;;
38859;SDS011;24609;48.316;16.174;2024-03-08T11:04:37;38.05;;;21.00;;
38859;SDS011;24609;48.316;16.174;2024-03-08T11:07:03;33.05;;;19.13;;
38859;SDS011;24609;48.316;16.174;2024-03-08T11:09:40;35.70;;;21.08;;
38859;SDS011;24609;48.316;16.174;2024-03-08T11:14:49;32.65;;;18.67;;
38859;SDS011;24609;48.316;16.174;2024-03-08T11:17:26;29.98;;;18.02;;
38859;SDS011;24609;48.316;16.174;2024-03-08T11:19:59;36.00;;;20.95;;
38859;SDS011;24609;48.316;16.174;2024-03-08T11:22:29;37.20;;;20.00;;
38859;SDS011;24609;48.316;16.174;2024-03-08T11:24:59;33.38;;;19.15;;
38859;SDS011;24609;48.316;16.174;2024-03-08T11:27:33;39.08;;;21.88;;
38859;SDS011;24609;48.316;16.174;2024-03-08T11:30:02;33.10;;;19.95;;
38859;SDS011;24609;48.316;16.174;2024-03-08T11:32:35;35.17;;;19.63;;
38859;SDS011;24609;48.316;16.174;2024-03-08T11:35:03;37.78;;;19.67;;
38859;SDS011;24609;48.316;16.174;2024-03-08T11:37:33;31.33;;;19.05;;
38859;SDS011;24609;48.316;16.174;2024-03-08T11:40:05;30.20;;;17.40;;
38859;SDS011;24609;48.316;16.174;2024-03-08T11:42:39;33.15;;;18.05;;
38859;SDS011;24609;48.316;16.174;2024-03-08T11:45:09;41.50;;;24.23;;
38859;SDS011;24609;48.316;16.174;2024-03-08T11:47:36;28.40;;;16.17;;
38859;SDS011;24609;48.316;16.174;2024-03-08T11:50:05;24.17;;;15.10;;
38859;SDS011;24609;48.316;16.174;2024-03-08T11:52:35;22.42;;;12.52;;
38859;SDS011;24609;48.316;16.174;2024-03-08T11:55:01;22.40;;;13.07;;
38859;SDS011;24609;48.316;16.174;2024-03-08T11:57:30;20.63;;;12.82;;
38859;SDS011;24609;48.316;16.174;2024-03-08T11:59:55;23.27;;;14.07;;
38859;SDS011;24609;48.316;16.174;2024-03-08T12:02:22;25.45;;;15.13;;
38859;SDS011;24609;48.316;16.174;2024-03-08T12:04:55;24.40;;;15.38;;
38859;SDS011;24609;48.316;16.174;2024-03-08T12:07:22;31.00;;;19.40;;
38859;SDS011;24609;48.316;16.174;2024-03-08T12:12:42;26.25;;;17.42;;
38859;SDS011;24609;48.316;16.174;2024-03-08T12:15:12;33.67;;;18.20;;
38859;SDS011;24609;48.316;16.174;2024-03-08T12:17:40;26.90;;;16.08;;
38859;SDS011;24609;48.316;16.174;2024-03-08T12:20:19;26.83;;;15.63;;
38859;SDS011;24609;48.316;16.174;2024-03-08T12:22:47;29.55;;;16.85;;
38859;SDS011;24609;48.316;16.174;2024-03-08T12:25:18;25.92;;;17.00;;
38859;SDS011;24609;48.316;16.174;2024-03-08T12:27:45;28.02;;;17.20;;
38859;SDS011;24609;48.316;16.174;2024-03-08T12:30:21;30.83;;;17.77;;
38859;SDS011;24609;48.316;16.174;2024-03-08T12:32:48;28.25;;;18.00;;
38859;SDS011;24609;48.316;16.174;2024-03-08T12:35:20;33.08;;;18.55;;
38859;SDS011;24609;48.316;16.174;2024-03-08T12:37:48;56.42;;;30.17;;
38859;SDS011;24609;48.316;16.174;2024-03-08T12:40:16;67.35;;;34.72;;
38859;SDS011;24609;48.316;16.174;2024-03-08T12:42:45;46.38;;;27.77;;
38859;SDS011;24609;48.316;16.174;2024-03-08T12:45:14;26.35;;;16.98;;
38859;SDS011;24609;48.316;16.174;2024-03-08T12:47:40;28.00;;;16.38;;
38859;SDS011;24609;48.316;16.174;2024-03-08T12:50:07;25.98;;;16.35;;
38859;SDS011;24609;48.316;16.174;2024-03-08T12:52:34;23.35;;;14.13;;
38859;SDS011;24609;48.316;16.174;2024-03-08T12:55:00;24.27;;;15.15;;
38859;SDS011;24609;48.316;16.174;2024-03-08T12:57:28;25.33;;;14.43;;
38859;SDS011;24609;48.316;16.174;2024-03-08T12:59:54;24.80;;;15.02;;
38859;SDS011;24609;48.316;16.174;2024-03-08T13:02:20;22.45;;;14.38;;
38859;SDS011;24609;48.316;16.174;2024-03-08T13:04:46;20.80;;;13.98;;
38859;SDS011;24609;48.316;16.174;2024-03-08T13:07:20;23.70;;;13.80;;
38859;SDS011;24609;48.316;16.174;2024-03-08T13:09:46;19.58;;;12.27;;
38859;SDS011;24609;48.316;16.174;2024-03-08T13:12:12;18.70;;;12.50;;
38859;SDS011;24609;48.316;16.174;2024-03-08T13:14:40;17.17;;;11.82;;
38859;SDS011;24609;48.316;16.174;2024-03-08T13:17:06;17.57;;;12.40;;
38859;SDS011;24609;48.316;16.174;2024-03-08T13:19:36;20.05;;;11.57;;
38859;SDS011;24609;48.316;16.174;2024-03-08T13:22:03;19.98;;;12.90;;
38859;SDS011;24609;48.316;16.174;2024-03-08T13:26:59;21.23;;;13.07;;
38859;SDS011;24609;48.316;16.174;2024-03-08T13:29:25;20.83;;;13.63;;
38859;SDS011;24609;48.316;16.174;2024-03-08T13:31:51;33.05;;;19.08;;
38859;SDS011;24609;48.316;16.174;2024-03-08T13:34:18;20.00;;;13.65;;
38859;SDS011;24609;48.316;16.174;2024-03-08T13:36:44;26.55;;;15.77;;
38859;SDS011;24609;48.316;16.174;2024-03-08T13:39:11;19.83;;;13.88;;
38859;SDS011;24609;48.316;16.174;2024-03-08T13:41:40;20.15;;;12.93;;
38859;SDS011;24609;48.316;16.174;2024-03-08T13:44:10;30.60;;;17.45;;
38859;SDS011;24609;48.316;16.174;2024-03-08T13:46:35;34.83;;;20.35;;
38859;SDS011;24609;48.316;16.174;2024-03-08T13:49:05;24.73;;;16.55;;
38859;SDS011;24609;48.316;16.174;2024-03-08T13:51:33;23.30;;;13.98;;
38859;SDS011;24609;48.316;16.174;2024-03-08T13:53:59;54.95;;;27.75;;
38859;SDS011;24609;48.316;16.174;2024-03-08T13:56:25;29.75;;;16.40;;
38859;SDS011;24609;48.316;16.174;2024-03-08T13:58:52;32.03;;;17.20;;
38859;SDS011;24609;48.316;16.174;2024-03-08T14:01:21;29.00;;;15.93;;
38859;SDS011;24609;48.316;16.174;2024-03-08T14:03:47;23.85;;;14.90;;
38859;SDS011;24609;48.316;16.174;2024-03-08T14:06:12;25.88;;;14.23;;
38859;SDS011;24609;48.316;16.174;2024-03-08T14:08:38;22.17;;;13.68;;
38859;SDS011;24609;48.316;16.174;2024-03-08T14:11:04;21.83;;;14.05;;
38859;SDS011;24609;48.316;16.174;2024-03-08T14:13:43;21.08;;;13.20;;
38859;SDS011;24609;48.316;16.174;2024-03-08T14:16:12;30.00;;;16.23;;
38859;SDS011;24609;48.316;16.174;2024-03-08T14:18:38;19.70;;;11.85;;
38859;SDS011;24609;48.316;16.174;2024-03-08T14:21:04;39.15;;;17.73;;
38859;SDS011;24609;48.316;16.174;2024-03-08T14:23:30;19.50;;;12.13;;
38859;SDS011;24609;48.316;16.174;2024-03-08T14:25:57;18.42;;;12.20;;